Aviation Digital Data Service (ADDS)

Output produced by METARs form (0557 UTC 29 May 2017)
found at http://www.aviationweather.gov/adds/metars/
 
KDAB 290533Z 2906/3006 23006KT P6SM SKC 
     FM290900 27004KT P6SM MIFG SCT006 
     FM291300 29006KT P6SM SCT025 
     FM291800 10008KT P6SM SCT045 
     FM300000 12005KT P6SM FEW040
       
KDAG 290537Z 2906/3006 25010KT P6SM SKC 
     FM291500 30009KT P6SM SKC 
     FM291900 06007KT P6SM SCT250 
     FM300100 26012KT P6SM BKN250
       
KDAL 290520Z 2906/3006 03007KT P6SM OVC200 
     FM291200 03006KT P6SM FEW015 BKN180 
     FM292200 09008KT P6SM SCT090
       
KDAN 290533Z 2906/3006 27004KT 3SM BR FEW250 
     TEMPO 2906/2910 1SM BR 
     FM291200 25005KT P6SM SCT250 
     FM291900 28006KT P6SM BKN050 
     FM300300 00000KT P6SM BKN100
       
KDAY 290520Z 2906/3006 25006KT P6SM FEW100 
     FM291600 23012KT P6SM SCT250 
     FM300000 23010KT P6SM VCSH SCT080 BKN200
       
KDBQ 290520Z 2906/3006 25004KT P6SM SCT100 
     FM291500 27012KT P6SM SCT120 
     FM291800 28015G24KT P6SM BKN050 
     FM300100 28007KT P6SM BKN060
       
KDCA 290541Z 2906/3006 07006KT 4SM -DZ BR OVC005 
     FM291200 00000KT 5SM BR OVC015 
     FM291400 VRB03KT P6SM BKN020 OVC060 
     FM291600 27005KT P6SM BKN035 
     FM300000 30005KT P6SM SCT200 
     FM300200 18004KT P6SM SCT250 
     FM300500 11004KT P6SM SCT080
       
KDDC 290520Z 2906/3006 24005KT P6SM SKC 
     FM291400 31007KT P6SM SKC 
     FM291700 34008KT P6SM SKC 
     FM292000 01007KT P6SM SKC 
     FM292300 04007KT P6SM SKC
       
KDEC 290520Z 2906/3006 23006KT P6SM SCT100 BKN250 
     FM291700 27010KT P6SM SCT200 
     FM292100 27012G18KT P6SM VCTS SCT045CB 
     FM300000 29006KT P6SM SCT150
       
KDEN 290542Z 2906/3012 15007KT P6SM VCSH SCT080 BKN220 
     FM290800 36010KT P6SM VCSH SCT060 BKN140 
     FM291100 VRB05KT P6SM SCT070 BKN120 
     FM291700 08008KT P6SM SCT060 BKN100 
     TEMPO 2920/2924 VRB15G30KT -TSRA BKN050CB 
     FM300000 10009KT P6SM VCSH SCT070 BKN100 
     FM300300 14007KT P6SM SCT080 BKN120 
     FM300600 19006KT P6SM FEW080 SCT140
       
KDET 290521Z 2906/3006 24008KT P6SM SCT080 
     FM291600 22015G24KT P6SM BKN060 
     FM300000 24010KT P6SM SCT070
       
KDFW 290520Z 2906/3012 01008KT P6SM OVC200 
     FM291200 03007KT P6SM FEW015 OVC180 
     FM292200 09008KT P6SM SCT090
       
KDHN 290532Z 2906/3006 24006KT P6SM FEW015 BKN250 
     FM291300 VRB07G12KT 6SM -SHRA VCTS BKN025CB 
     FM291700 24008G13KT P6SM BKN040 
     FM292100 26009KT 6SM -SHRA VCTS BKN040CB
       
KDHT 290525Z 2906/3006 VRB06KT P6SM SKC 
     FM291400 21010KT P6SM SKC 
     FM300000 VRB06KT P6SM BKN060
       
KDIK 290524Z 2906/3006 33009KT P6SM FEW080 
     FM291300 31015G23KT P6SM FEW030 SCT120 
     FM291900 32018G27KT P6SM SCT050 BKN090 
     FM300100 33012KT P6SM FEW070 FEW200 
     FM300300 34007KT P6SM FEW080 FEW200
       
KDLH 290537Z 2906/3006 29008KT P6SM VCSH SCT025 BKN070 
     FM291000 29008KT P6SM VCSH BKN015 
     FM291300 29011KT P6SM VCSH OVC008 
     FM291700 30013G20KT 6SM -SHRA BR OVC008 
     FM292200 30015G22KT P6SM VCSH BKN020 
     FM300100 29010KT P6SM BKN025
       
KDLS 290520Z 2906/3006 VRB05KT P6SM SKC 
     FM291700 34009KT P6SM SCT090
       
TAF KDMA 282200Z 2822/3004 30012KT 9999 SKC QNH2988INS 
     BECMG 2902/2903 VRB06KT 9999 SKC QNH2981INS TX35/2822Z TN16/2911Z
       
KDMN 290538Z 2906/3006 07010KT P6SM SKC 
     FM291200 13010G20KT P6SM SCT060 BKN100 
     FM291800 12010G18KT P6SM VCTS SCT050CB BKN080 
     FM292300 13010G20KT 6SM -TSRA BKN050CB BKN080
       
KDNL 290529Z 2906/3006 25004KT P6SM SCT250 
     FM291400 29007KT P6SM BKN250 
     FM292100 25010KT P6SM VCSH SCT040 BKN150
       
TAF AMD KDOV 290325Z 2903/3006 06006KT 6000 BR OVC007 QNH2979INS 
     BECMG 2909/2910 33009KT 9999 NSW OVC005 QNH2980INS 
     BECMG 2914/2915 31009KT 9999 SCT007 BKN010 QNH2987INS 
     BECMG 2922/2923 09009KT 9999 BKN010 QNH2997INS TX22/2919Z TN15/2908Z
       
KDPA 290520Z 2906/3006 24005KT P6SM BKN100 
     FM291500 26013G22KT P6SM SCT050 
     FM291800 27016G27KT P6SM SCT060 
     FM300000 27008KT P6SM FEW060
       
KDRO 290541Z 2906/3006 35004KT P6SM SKC 
     FM290900 04005KT P6SM SKC 
     FM292000 23008KT P6SM FEW110 
     FM292300 27010KT P6SM FEW110 
     FM300200 35007KT P6SM SKC
       
KDRT 290526Z 2906/3006 11008KT P6SM VCTS SCT040CB BKN100 
     FM291200 05007KT P6SM BKN018 
     FM291800 14008KT P6SM SCT050 
     FM300100 10009KT P6SM BKN100
       
KDSM 290520Z 2906/3006 26005KT P6SM SCT110 
     FM291500 30010KT P6SM SCT110 
     FM291800 30014G20KT P6SM SCT100 
     FM300100 30009KT P6SM FEW150 
     FM300300 29005KT P6SM FEW150
       
KDTW 290521Z 2906/3012 24008KT P6SM SCT080 
     FM291600 22015G24KT P6SM BKN060 
     FM300000 24010KT P6SM SCT070 
     FM300600 26006KT P6SM SCT080
       
KDUG 290520Z 2906/3006 VRB04KT P6SM SKC 
     FM291600 14011KT P6SM FEW120 
     FM292200 23010KT P6SM SCT120
       
KDUJ 290522Z 2906/3006 VRB04KT 3SM -SHRA BR OVC008 
     FM291000 22008KT 3SM -SHRA OVC010 
     FM291200 25008KT P6SM BKN025 
     FM291500 26012KT P6SM SCT100 
     FM300100 21005KT P6SM BKN100
       
KDVL 290520Z 2906/3006 32011KT P6SM OVC045 
     FM290800 32012KT P6SM OVC025 
     FM291300 33017G26KT P6SM OVC020 
     FM291900 32017G31KT P6SM BKN035 
     FM300400 33011KT P6SM BKN030